createdAt,value
2019-05-10T00:00:40.079Z,9.10
2019-05-10T00:03:26.571Z,10.83
2019-05-10T00:06:13.040Z,10.67
2019-05-10T00:08:46.947Z,12.67
2019-05-10T00:11:34.769Z,11.97
2019-05-10T00:14:18.519Z,13.30
2019-05-10T00:16:48.695Z,13.70
2019-05-10T00:19:17.459Z,13.93
2019-05-10T00:21:46.269Z,14.93
2019-05-10T00:24:15.018Z,15.20
2019-05-10T00:26:43.980Z,15.47
2019-05-10T00:29:12.672Z,16.23
2019-05-10T00:31:41.367Z,16.93
2019-05-10T00:34:10.194Z,17.80
2019-05-10T00:36:38.909Z,18.57
2019-05-10T00:39:07.780Z,19.67
2019-05-10T00:41:36.561Z,20.10
2019-05-10T00:44:05.464Z,19.70
2019-05-10T00:46:34.209Z,20.50
2019-05-10T00:49:02.990Z,19.83
2019-05-10T00:51:31.780Z,19.87
2019-05-10T00:54:00.507Z,20.07
2019-05-10T00:56:29.271Z,20.23
2019-05-10T00:58:57.999Z,19.20
2019-05-10T01:01:26.670Z,18.60
2019-05-10T01:03:55.294Z,21.10
2019-05-10T01:06:24.091Z,20.83
2019-05-10T01:08:52.855Z,20.97
2019-05-10T01:11:21.574Z,22.90
2019-05-10T01:13:50.400Z,23.17
2019-05-10T01:16:19.014Z,25.07
2019-05-10T01:18:47.715Z,26.33
2019-05-10T01:21:16.516Z,25.90
2019-05-10T01:23:45.197Z,28.53
2019-05-10T01:26:13.946Z,30.20
2019-05-10T01:28:42.716Z,31.53
2019-05-10T01:31:11.621Z,34.50
2019-05-10T01:33:40.258Z,34.00
2019-05-10T01:36:09.015Z,35.90
2019-05-10T01:38:37.756Z,37.87
2019-05-10T01:41:06.484Z,39.17
2019-05-10T01:43:35.200Z,40.43
2019-05-10T01:46:04.007Z,39.17
2019-05-10T01:48:32.790Z,39.77
2019-05-10T01:51:01.449Z,39.67
2019-05-10T01:53:30.130Z,40.20
2019-05-10T01:55:58.968Z,39.70
2019-05-10T01:58:27.667Z,42.00
2019-05-10T02:00:56.359Z,41.20
2019-05-10T02:03:25.082Z,40.10
2019-05-10T02:05:53.778Z,41.13
2019-05-10T02:08:22.590Z,42.10
2019-05-10T02:10:51.353Z,41.67
2019-05-10T02:13:20.006Z,40.80
2019-05-10T02:15:48.772Z,41.80
2019-05-10T02:18:17.569Z,42.10
2019-05-10T02:20:46.267Z,42.77
2019-05-10T02:23:15.067Z,43.00
2019-05-10T02:25:43.763Z,41.57
2019-05-10T02:28:12.457Z,42.70
2019-05-10T02:30:41.192Z,41.37
2019-05-10T02:33:09.913Z,42.83
2019-05-10T02:35:38.646Z,41.93
2019-05-10T02:38:07.450Z,41.03
2019-05-10T02:40:36.172Z,42.87
2019-05-10T02:43:04.878Z,40.93
2019-05-10T02:45:33.663Z,41.47
2019-05-10T02:48:02.369Z,40.33
2019-05-10T02:50:31.190Z,40.27
2019-05-10T02:52:59.881Z,39.37
2019-05-10T02:55:28.894Z,40.60
2019-05-10T02:57:57.738Z,39.67
2019-05-10T03:00:26.607Z,36.57
2019-05-10T03:02:55.910Z,37.47
2019-05-10T03:05:27.405Z,38.13
2019-05-10T03:07:58.402Z,37.63
2019-05-10T03:10:32.076Z,38.40
2019-05-10T03:13:05.181Z,37.40
2019-05-10T03:15:37.147Z,39.93
2019-05-10T03:18:06.111Z,37.30
2019-05-10T03:20:38.049Z,37.57
2019-05-10T03:23:09.053Z,38.20
2019-05-10T03:25:37.833Z,37.57
2019-05-10T03:28:06.641Z,38.03
2019-05-10T03:30:35.410Z,36.13
2019-05-10T03:33:04.210Z,32.90
2019-05-10T03:35:33.074Z,31.30
2019-05-10T03:38:01.879Z,31.27
2019-05-10T03:40:30.681Z,27.17
2019-05-10T03:42:59.367Z,27.07
2019-05-10T03:45:28.171Z,28.73
2019-05-10T03:47:56.936Z,29.40
2019-05-10T03:50:25.713Z,30.57
2019-05-10T03:52:54.418Z,29.80
2019-05-10T03:55:23.148Z,32.67
2019-05-10T03:57:52.006Z,33.57
2019-05-10T04:00:21.010Z,31.83
2019-05-10T04:02:49.763Z,30.37
2019-05-10T04:05:18.520Z,30.07
2019-05-10T04:07:47.249Z,27.70
2019-05-10T04:10:20.307Z,26.10
2019-05-10T04:12:46.661Z,23.73
2019-05-10T04:15:15.464Z,22.87
2019-05-10T04:17:44.265Z,22.23
2019-05-10T04:20:13.046Z,21.87
2019-05-10T04:22:41.696Z,22.57
2019-05-10T04:25:10.737Z,22.53
2019-05-10T04:27:39.608Z,21.77
2019-05-10T04:30:10.041Z,23.43
2019-05-10T04:32:38.782Z,22.87
2019-05-10T04:35:07.747Z,23.33
2019-05-10T04:37:36.492Z,22.07
2019-05-10T04:40:08.450Z,21.43
2019-05-10T04:42:37.242Z,22.40
2019-05-10T04:45:06.607Z,22.73
2019-05-10T04:47:35.347Z,22.87
2019-05-10T04:50:04.591Z,21.97
2019-05-10T04:52:33.377Z,23.77
2019-05-10T04:55:02.100Z,22.17
2019-05-10T04:57:47.968Z,22.80
2019-05-10T05:00:01.057Z,22.73
2019-05-10T05:02:29.838Z,22.23
2019-05-10T05:04:58.642Z,22.40
2019-05-10T05:07:27.596Z,23.27
2019-05-10T05:09:56.219Z,22.40
2019-05-10T05:12:25.149Z,22.30
2019-05-10T05:14:53.957Z,22.23
2019-05-10T05:17:22.651Z,21.30
2019-05-10T05:19:51.550Z,22.20
2019-05-10T05:22:20.166Z,22.27
2019-05-10T05:24:48.927Z,21.60
2019-05-10T05:27:17.728Z,21.60
2019-05-10T05:29:46.441Z,21.07
2019-05-10T05:32:15.312Z,20.40
2019-05-10T05:34:44.028Z,20.63
2019-05-10T05:37:12.746Z,20.93
2019-05-10T05:39:42.166Z,20.60
2019-05-10T05:42:10.852Z,19.30
2019-05-10T05:44:39.910Z,20.13
2019-05-10T05:47:08.751Z,19.43
2019-05-10T05:49:37.485Z,18.10
2019-05-10T05:52:06.203Z,18.97
2019-05-10T05:54:34.923Z,19.00
2019-05-10T05:57:03.833Z,19.40
2019-05-10T05:59:32.610Z,17.97
2019-05-10T06:02:07.396Z,18.17
2019-05-10T06:04:31.601Z,18.07
2019-05-10T06:07:00.615Z,17.50
2019-05-10T06:09:32.034Z,19.40
2019-05-10T06:11:59.807Z,18.30
2019-05-10T06:14:28.474Z,19.17
2019-05-10T06:16:57.254Z,18.97
2019-05-10T06:19:29.460Z,19.27
2019-05-10T06:22:02.228Z,18.83
2019-05-10T06:24:26.772Z,21.27
2019-05-10T06:26:58.233Z,20.33
2019-05-10T06:29:25.847Z,19.97
2019-05-10T06:31:58.285Z,20.77
2019-05-10T06:34:24.856Z,22.00
2019-05-10T06:36:53.719Z,20.70
2019-05-10T06:39:22.615Z,21.53
2019-05-10T06:41:56.010Z,21.07
2019-05-10T06:44:25.078Z,22.73
2019-05-10T06:46:52.195Z,21.77
2019-05-10T06:49:20.877Z,22.03
2019-05-10T06:51:50.983Z,22.97
2019-05-10T06:54:19.864Z,21.20
2019-05-10T06:56:48.572Z,21.77
2019-05-10T06:59:19.292Z,23.67
2019-05-10T07:01:51.961Z,23.43
2019-05-10T07:04:18.208Z,21.80
2019-05-10T07:06:47.022Z,22.20
2019-05-10T07:09:15.796Z,22.80
2019-05-10T07:11:44.501Z,21.33
2019-05-10T07:14:13.256Z,21.93
2019-05-10T07:16:41.869Z,21.27
2019-05-10T07:19:10.765Z,22.73
2019-05-10T07:21:44.624Z,23.13
2019-05-10T07:24:09.867Z,23.50
2019-05-10T07:26:38.587Z,25.37
2019-05-10T07:29:07.435Z,24.17
2019-05-10T07:31:36.520Z,22.07
2019-05-10T07:34:09.764Z,22.90
2019-05-10T07:36:35.818Z,22.80
2019-05-10T07:39:08.376Z,21.00
2019-05-10T07:41:36.960Z,21.40
2019-05-10T07:44:07.939Z,21.77
2019-05-10T07:46:40.015Z,21.07
2019-05-10T07:49:06.620Z,21.00
2019-05-10T07:51:35.527Z,21.50
2019-05-10T07:54:05.081Z,21.33
2019-05-10T07:56:39.009Z,20.80
2019-05-10T07:59:05.127Z,19.37
2019-05-10T08:01:34.971Z,18.87
2019-05-10T08:04:03.808Z,16.57
2019-05-10T08:06:40.281Z,16.93
2019-05-10T08:09:06.403Z,15.33
2019-05-10T08:11:33.408Z,15.33
2019-05-10T08:14:06.277Z,12.97
2019-05-10T08:16:32.628Z,11.70
2019-05-10T08:19:02.389Z,9.90
2019-05-10T08:21:32.180Z,11.40
2019-05-10T08:24:05.212Z,10.03
2019-05-10T08:26:32.775Z,10.03
2019-05-10T08:29:02.187Z,9.33
2019-05-10T08:31:39.917Z,9.00
2019-05-10T08:34:02.198Z,8.87
2019-05-10T08:36:32.201Z,7.80
2019-05-10T08:39:09.549Z,7.07
2019-05-10T08:41:32.579Z,7.40
2019-05-10T08:44:04.731Z,7.40
2019-05-10T08:46:40.061Z,7.57
2019-05-10T08:49:02.303Z,7.47
2019-05-10T08:51:32.326Z,7.57
2019-05-10T08:54:01.875Z,7.63
2019-05-10T08:56:33.030Z,7.20
2019-05-10T08:59:03.693Z,6.97
2019-05-10T09:01:38.806Z,6.37
2019-05-10T09:04:06.638Z,6.43
2019-05-10T09:06:32.851Z,6.40
2019-05-10T09:09:03.459Z,6.43
2019-05-10T09:11:32.844Z,6.93
2019-05-10T09:14:03.145Z,5.73
2019-05-10T09:16:39.350Z,5.47
2019-05-10T09:19:02.737Z,4.83
2019-05-10T09:21:32.144Z,4.80
2019-05-10T09:24:03.396Z,4.80
2019-05-10T09:26:32.239Z,4.70
2019-05-10T09:29:01.707Z,4.50
2019-05-10T09:31:32.502Z,4.27
2019-05-10T09:34:02.399Z,4.17
2019-05-10T09:36:36.028Z,3.67
2019-05-10T09:39:03.367Z,4.07
2019-05-10T09:41:36.056Z,4.57
2019-05-10T09:44:03.060Z,3.97
2019-05-10T09:46:32.400Z,4.37
2019-05-10T09:49:13.692Z,4.43
2019-05-10T09:51:33.143Z,4.40
2019-05-10T09:54:02.132Z,4.37
2019-05-10T09:56:32.769Z,5.13
2019-05-10T09:59:01.191Z,5.20
2019-05-10T10:01:29.941Z,5.10
2019-05-10T10:04:01.963Z,4.87
2019-05-10T10:06:29.754Z,5.00
2019-05-10T10:09:01.019Z,5.00
2019-05-10T10:11:29.182Z,5.33
2019-05-10T10:13:59.791Z,4.90
2019-05-10T10:16:28.356Z,4.53
2019-05-10T10:18:56.999Z,5.10
2019-05-10T10:21:34.830Z,5.20
2019-05-10T10:24:00.005Z,4.93
2019-05-10T10:26:26.866Z,4.67
2019-05-10T10:28:57.843Z,5.37
2019-05-10T10:31:30.468Z,4.77
2019-05-10T10:33:59.494Z,5.20
2019-05-10T10:36:27.562Z,4.70
2019-05-10T10:38:56.311Z,4.30
2019-05-10T10:41:26.245Z,4.40
2019-05-10T10:43:55.303Z,4.30
2019-05-10T10:46:24.020Z,5.10
2019-05-10T10:48:52.734Z,4.33
2019-05-10T10:51:21.428Z,4.37
2019-05-10T10:53:50.261Z,5.70
2019-05-10T10:56:18.944Z,4.33
2019-05-10T10:58:49.942Z,3.57
2019-05-10T11:01:24.666Z,4.40
2019-05-10T11:03:49.167Z,4.70
2019-05-10T11:06:17.931Z,6.13
2019-05-10T11:08:46.642Z,3.63
2019-05-10T11:11:15.364Z,3.20
2019-05-10T11:13:45.609Z,4.00
2019-05-10T11:16:15.784Z,3.57
2019-05-10T11:18:44.659Z,3.33
2019-05-10T11:21:13.472Z,3.80
2019-05-10T11:23:42.263Z,3.20
2019-05-10T11:26:11.070Z,3.13
2019-05-10T11:28:43.962Z,101.23
2019-05-10T11:31:11.357Z,8.37
2019-05-10T11:33:41.542Z,3.97
2019-05-10T11:36:11.393Z,3.20
2019-05-10T11:38:42.035Z,3.03
2019-05-10T11:41:13.023Z,3.10
2019-05-10T11:43:41.897Z,5.43
2019-05-10T11:46:11.797Z,2.90
2019-05-10T11:48:42.122Z,2.73
2019-05-10T11:51:15.882Z,2.80
2019-05-10T11:53:41.723Z,2.70
2019-05-10T11:56:14.165Z,2.60
2019-05-10T11:58:49.053Z,2.40
2019-05-10T12:01:17.764Z,2.80
2019-05-10T12:06:12.153Z,2.87
2019-05-10T12:08:41.828Z,2.73
2019-05-10T12:11:27.261Z,3.07
2019-05-10T12:13:41.207Z,3.20
2019-05-10T12:16:16.135Z,2.87
2019-05-10T12:18:50.183Z,2.77
2019-05-10T12:21:11.295Z,3.63
2019-05-10T12:23:47.275Z,2.97
2019-05-10T12:28:41.014Z,3.10
2019-05-10T12:31:14.424Z,3.00
2019-05-10T12:33:42.964Z,3.43
2019-05-10T12:36:22.372Z,3.57
2019-05-10T12:38:41.050Z,3.30
2019-05-10T12:41:09.728Z,3.73
2019-05-10T12:43:43.227Z,3.03
2019-05-10T12:46:10.473Z,2.90
2019-05-10T12:48:39.688Z,3.03
2019-05-10T12:51:11.849Z,2.60
2019-05-10T12:53:44.624Z,3.17
2019-05-10T12:56:09.169Z,3.00
2019-05-10T12:58:37.884Z,2.70
2019-05-10T13:01:06.635Z,2.47
2019-05-10T13:03:35.430Z,3.00
2019-05-10T13:06:04.180Z,2.60
2019-05-10T13:08:33.073Z,2.70
2019-05-10T13:11:01.838Z,2.83
2019-05-10T13:13:30.590Z,2.90
2019-05-10T13:16:03.583Z,3.30
2019-05-10T13:21:00.227Z,2.37
2019-05-10T13:23:29.002Z,2.20
2019-05-10T13:25:57.744Z,2.33
2019-05-10T13:28:26.506Z,2.30
2019-05-10T13:30:59.980Z,2.30
2019-05-10T13:33:29.118Z,2.63
2019-05-10T13:35:57.054Z,2.10
2019-05-10T13:38:26.546Z,2.30
2019-05-10T13:40:55.343Z,1.80
2019-05-10T13:43:26.599Z,2.10
2019-05-10T13:45:54.685Z,2.10
2019-05-10T13:48:26.388Z,2.30
2019-05-10T13:50:53.871Z,2.00
2019-05-10T13:53:23.230Z,2.20
2019-05-10T13:55:52.283Z,2.03
2019-05-10T13:58:20.996Z,2.50
2019-05-10T14:00:49.763Z,2.40
2019-05-10T14:03:18.568Z,2.27
2019-05-10T14:05:47.346Z,2.00
2019-05-10T14:08:16.116Z,2.00
2019-05-10T14:10:44.899Z,2.40
2019-05-10T14:13:16.621Z,2.57
2019-05-10T14:15:44.043Z,2.23
2019-05-10T14:18:12.824Z,2.90
2019-05-10T14:20:41.624Z,3.03
2019-05-10T14:23:10.426Z,3.20
2019-05-10T14:25:39.256Z,3.47
2019-05-10T14:28:09.671Z,3.30
2019-05-10T14:30:38.337Z,2.90
2019-05-10T14:33:08.669Z,4.20
2019-05-10T14:35:37.515Z,21.83
2019-05-10T14:38:10.294Z,51.13
2019-05-10T14:40:37.603Z,17.03
2019-05-10T14:43:06.381Z,34.37
2019-05-10T14:45:35.126Z,87.60
2019-05-10T14:48:03.906Z,49.50
2019-05-10T14:50:32.637Z,7.00
2019-05-10T14:53:01.266Z,4.40
2019-05-10T14:55:34.429Z,3.70
2019-05-10T14:58:00.302Z,3.40
2019-05-10T15:00:29.105Z,3.20
2019-05-10T15:03:02.010Z,2.77
2019-05-10T15:05:28.433Z,2.37
2019-05-10T15:07:57.253Z,3.50
2019-05-10T15:10:26.012Z,3.40
2019-05-10T15:12:54.764Z,2.77
2019-05-10T15:15:23.547Z,2.77
2019-05-10T15:17:55.154Z,3.03
2019-05-10T15:20:22.690Z,3.00
2019-05-10T15:22:51.372Z,2.80
2019-05-10T15:25:20.168Z,3.10
2019-05-10T15:27:48.970Z,3.30
2019-05-10T15:30:17.934Z,3.10
2019-05-10T15:32:46.929Z,3.20
2019-05-10T15:35:15.668Z,2.97
2019-05-10T15:37:46.489Z,3.63
2019-05-10T15:40:15.300Z,4.03
2019-05-10T15:42:44.089Z,3.43
2019-05-10T15:45:14.691Z,3.57
2019-05-10T15:47:51.065Z,3.03
2019-05-10T15:50:14.608Z,3.70
2019-05-10T15:52:46.457Z,3.60
2019-05-10T15:55:16.483Z,3.10
2019-05-10T15:57:44.782Z,3.20
2019-05-10T16:00:13.842Z,3.30
2019-05-10T16:02:42.573Z,3.70
2019-05-10T16:05:23.872Z,3.80
2019-05-10T16:07:46.463Z,3.10
2019-05-10T16:10:12.371Z,3.17
2019-05-10T16:12:43.190Z,2.70
2019-05-10T16:15:13.674Z,2.80
2019-05-10T16:17:43.492Z,2.80
2019-05-10T16:20:12.393Z,2.50
2019-05-10T16:22:41.281Z,2.50
2019-05-10T16:25:10.075Z,2.50
2019-05-10T16:27:44.270Z,2.40
2019-05-10T16:30:12.085Z,2.50
2019-05-10T16:32:41.045Z,2.67
2019-05-10T16:35:14.604Z,2.43
2019-05-10T16:37:40.397Z,2.50
2019-05-10T16:40:09.297Z,2.70
2019-05-10T16:42:37.958Z,2.77
2019-05-10T16:45:07.524Z,2.57
2019-05-10T16:47:36.307Z,2.70
2019-05-10T16:50:06.904Z,2.70
2019-05-10T16:52:35.656Z,2.70
2019-05-10T16:55:09.801Z,2.80
2019-05-10T16:57:39.446Z,2.77
2019-05-10T17:00:10.622Z,2.73
2019-05-10T17:02:42.159Z,2.23
2019-05-10T17:05:15.147Z,2.73
2019-05-10T17:07:41.204Z,3.10
2019-05-10T17:10:10.188Z,2.80
2019-05-10T17:12:39.035Z,2.83
2019-05-10T17:15:07.914Z,2.83
2019-05-10T17:17:37.583Z,2.80
2019-05-10T17:20:14.042Z,2.83
2019-05-10T17:22:38.384Z,2.67
2019-05-10T17:25:09.980Z,3.03
2019-05-10T17:27:38.742Z,3.30
2019-05-10T17:30:07.897Z,3.00
2019-05-10T17:32:36.610Z,3.17
2019-05-10T17:35:07.662Z,3.23
2019-05-10T17:37:37.541Z,2.77
2019-05-10T17:40:10.296Z,3.13
2019-05-10T17:42:41.259Z,2.60
2019-05-10T17:45:10.187Z,2.50
2019-05-10T17:47:38.861Z,2.73
2019-05-10T17:50:09.172Z,2.97
2019-05-10T17:52:37.881Z,2.67
2019-05-10T17:55:10.867Z,2.90
2019-05-10T17:57:37.611Z,3.13
2019-05-10T18:00:07.979Z,3.07
2019-05-10T18:02:36.669Z,2.87
2019-05-10T18:05:08.238Z,3.40
2019-05-10T18:07:38.527Z,3.13
2019-05-10T18:10:07.961Z,2.57
2019-05-10T18:12:36.656Z,2.63
2019-05-10T18:15:07.542Z,9.20
2019-05-10T18:17:36.301Z,3.77
2019-05-10T18:20:05.889Z,3.30
2019-05-10T18:22:42.320Z,3.30
2019-05-10T18:25:05.930Z,3.20
2019-05-10T18:27:34.828Z,2.93
2019-05-10T18:30:03.720Z,2.77
2019-05-10T18:32:35.543Z,2.50
2019-05-10T18:35:13.671Z,2.77
2019-05-10T18:37:33.478Z,3.43
2019-05-10T18:40:02.235Z,6.67
2019-05-10T18:42:31.118Z,3.63
2019-05-10T18:44:59.871Z,2.80
2019-05-10T18:47:28.669Z,2.83
2019-05-10T18:49:57.428Z,2.60
2019-05-10T18:52:26.414Z,3.00
2019-05-10T18:54:55.113Z,3.57
2019-05-10T18:57:23.935Z,2.93
2019-05-10T18:59:52.644Z,3.20
2019-05-10T19:02:21.515Z,3.13
2019-05-10T19:04:52.055Z,3.60
2019-05-10T19:07:20.718Z,3.40
2019-05-10T19:09:49.427Z,4.17
2019-05-10T19:12:21.317Z,4.33
2019-05-10T19:14:49.536Z,3.47
2019-05-10T19:17:18.337Z,4.67
2019-05-10T19:19:47.086Z,3.90
2019-05-10T19:22:15.681Z,4.50
2019-05-10T19:24:44.339Z,4.47
2019-05-10T19:27:13.144Z,6.67
2019-05-10T19:29:45.760Z,21.67
2019-05-10T19:32:18.347Z,17.63
2019-05-10T19:34:48.308Z,6.00
2019-05-10T19:37:28.215Z,4.60
2019-05-10T19:39:44.014Z,4.57
2019-05-10T19:42:12.833Z,4.60
2019-05-10T19:44:42.290Z,5.20
2019-05-10T19:47:17.387Z,5.53
2019-05-10T19:49:45.875Z,4.87
2019-05-10T19:52:11.857Z,5.10
2019-05-10T19:54:40.648Z,4.10
2019-05-10T19:57:16.433Z,5.00
2019-05-10T19:59:44.053Z,5.03
2019-05-10T20:02:10.307Z,5.03
2019-05-10T20:04:39.008Z,4.70
2019-05-10T20:07:07.758Z,4.60
2019-05-10T20:09:36.553Z,5.40
2019-05-10T20:12:05.388Z,5.57
2019-05-10T20:14:34.022Z,5.40
2019-05-10T20:17:05.219Z,5.47
2019-05-10T20:19:33.966Z,5.20
2019-05-10T20:22:02.781Z,5.33
2019-05-10T20:24:31.486Z,4.83
2019-05-10T20:27:00.270Z,4.50
2019-05-10T20:29:29.023Z,5.40
2019-05-10T20:31:57.749Z,5.57
2019-05-10T20:34:26.511Z,5.60
2019-05-10T20:36:55.259Z,5.20
2019-05-10T20:39:23.885Z,5.87
2019-05-10T20:41:52.671Z,4.83
2019-05-10T20:44:21.391Z,4.83
2019-05-10T20:46:50.021Z,6.30
2019-05-10T20:49:18.943Z,6.13
2019-05-10T20:51:47.871Z,7.33
2019-05-10T20:54:16.646Z,7.73
2019-05-10T20:56:45.466Z,7.73
2019-05-10T20:59:14.076Z,7.30
2019-05-10T21:01:42.722Z,8.30
2019-05-10T21:04:11.453Z,7.80
2019-05-10T21:06:40.148Z,8.07
2019-05-10T21:09:08.883Z,7.47
2019-05-10T21:11:37.584Z,8.57
2019-05-10T21:14:06.473Z,9.30
2019-05-10T21:16:35.128Z,8.60
2019-05-10T21:19:04.138Z,8.63
2019-05-10T21:21:32.848Z,7.97
2019-05-10T21:24:01.459Z,7.50
2019-05-10T21:26:30.505Z,7.87
2019-05-10T21:28:59.450Z,8.57
2019-05-10T21:31:28.295Z,7.83
2019-05-10T21:34:09.207Z,8.37
2019-05-10T21:36:27.335Z,7.97
2019-05-10T21:38:56.146Z,7.50
2019-05-10T21:41:24.912Z,8.50
2019-05-10T21:43:53.705Z,7.23
2019-05-10T21:46:22.799Z,7.50
2019-05-10T21:48:51.551Z,7.40
2019-05-10T21:51:20.316Z,7.40
2019-05-10T21:53:49.099Z,6.70
2019-05-10T21:56:17.773Z,6.93
2019-05-10T21:58:46.509Z,7.00
2019-05-10T22:01:15.596Z,7.13
2019-05-10T22:03:44.438Z,7.10
2019-05-10T22:06:13.195Z,6.90
2019-05-10T22:08:49.374Z,6.27
2019-05-10T22:11:12.198Z,6.60
2019-05-10T22:13:40.935Z,6.17
2019-05-10T22:16:09.626Z,6.03
2019-05-10T22:18:38.532Z,5.40
2019-05-10T22:21:07.305Z,4.97
2019-05-10T22:23:36.111Z,5.13
2019-05-10T22:26:04.891Z,5.53
2019-05-10T22:28:33.575Z,5.40
2019-05-10T22:31:02.363Z,4.80
2019-05-10T22:33:30.975Z,4.83
2019-05-10T22:35:59.695Z,4.60
2019-05-10T22:38:28.398Z,4.40
2019-05-10T22:40:57.075Z,4.83
2019-05-10T22:43:25.783Z,4.47
2019-05-10T22:45:54.580Z,4.67
2019-05-10T22:48:23.335Z,4.63
2019-05-10T22:50:52.039Z,4.53
2019-05-10T22:53:20.819Z,4.97
2019-05-10T22:55:49.545Z,4.80
2019-05-10T22:58:18.323Z,5.07
2019-05-10T23:00:47.070Z,5.20
2019-05-10T23:03:15.787Z,4.77
2019-05-10T23:05:44.423Z,5.20
2019-05-10T23:08:13.223Z,4.93
2019-05-10T23:10:41.952Z,6.17
2019-05-10T23:13:10.627Z,4.77
2019-05-10T23:15:39.309Z,5.60
2019-05-10T23:18:07.991Z,4.80
2019-05-10T23:20:36.657Z,5.37
2019-05-10T23:23:05.415Z,5.30
2019-05-10T23:25:34.189Z,5.00
2019-05-10T23:28:02.892Z,5.47
2019-05-10T23:30:31.607Z,5.30
2019-05-10T23:33:00.304Z,5.07
2019-05-10T23:35:29.127Z,4.60
2019-05-10T23:37:57.956Z,4.83
2019-05-10T23:40:26.645Z,4.87
2019-05-10T23:42:55.382Z,4.57
2019-05-10T23:45:24.279Z,4.93
2019-05-10T23:47:52.966Z,4.40
2019-05-10T23:50:21.658Z,4.50
2019-05-10T23:52:50.470Z,5.50
2019-05-10T23:55:19.227Z,4.90
2019-05-10T23:57:48.018Z,4.67
